sensor_id;sensor_type;location;lat;lon;timestamp;pressure;altitude;pressure_sealevel;temperature;humidity
4346;BME280;2186;49.866;7.986;2023-03-13T00:01:23;99544.72;;;9.80;97.05
4346;BME280;2186;49.866;7.986;2023-03-13T00:03:50;99545.06;;;9.95;97.26
4346;BME280;2186;49.866;7.986;2023-03-13T00:06:17;99541.31;;;10.00;96.69
4346;BME280;2186;49.866;7.986;2023-03-13T00:08:44;99541.28;;;10.02;96.46
4346;BME280;2186;49.866;7.986;2023-03-13T00:11:11;99542.31;;;9.98;96.66
4346;BME280;2186;49.866;7.986;2023-03-13T00:13:38;99533.84;;;9.88;97.05
4346;BME280;2186;49.866;7.986;2023-03-13T00:16:15;99528.69;;;10.07;96.71
4346;BME280;2186;49.866;7.986;2023-03-13T00:18:46;99521.94;;;10.22;95.73
4346;BME280;2186;49.866;7.986;2023-03-13T00:21:13;99517.28;;;10.27;95.60
4346;BME280;2186;49.866;7.986;2023-03-13T00:23:39;99511.03;;;10.29;95.07
4346;BME280;2186;49.866;7.986;2023-03-13T00:26:12;99505.88;;;10.25;95.16
4346;BME280;2186;49.866;7.986;2023-03-13T00:28:40;99507.50;;;10.29;95.48
4346;BME280;2186;49.866;7.986;2023-03-13T00:31:12;99505.13;;;10.21;95.83
4346;BME280;2186;49.866;7.986;2023-03-13T00:33:41;99501.19;;;10.31;95.37
4346;BME280;2186;49.866;7.986;2023-03-13T00:36:11;99494.50;;;10.21;95.73
4346;BME280;2186;49.866;7.986;2023-03-13T00:38:38;99497.03;;;10.24;95.47
4346;BME280;2186;49.866;7.986;2023-03-13T00:41:07;99491.66;;;10.48;94.80
4346;BME280;2186;49.866;7.986;2023-03-13T00:43:34;99489.00;;;10.48;94.15
4346;BME280;2186;49.866;7.986;2023-03-13T00:46:01;99482.78;;;10.49;94.09
4346;BME280;2186;49.866;7.986;2023-03-13T00:48:27;99474.44;;;10.58;94.53
4346;BME280;2186;49.866;7.986;2023-03-13T00:50:54;99471.00;;;10.54;94.58
4346;BME280;2186;49.866;7.986;2023-03-13T00:53:21;99457.44;;;10.40;94.62
4346;BME280;2186;49.866;7.986;2023-03-13T00:58:24;99458.13;;;10.45;94.83
4346;BME280;2186;49.866;7.986;2023-03-13T01:00:51;99455.41;;;10.47;94.82
4346;BME280;2186;49.866;7.986;2023-03-13T01:03:19;99449.16;;;10.48;95.21
4346;BME280;2186;49.866;7.986;2023-03-13T01:05:58;99441.13;;;10.49;95.22
4346;BME280;2186;49.866;7.986;2023-03-13T01:08:26;99429.50;;;10.52;95.22
4346;BME280;2186;49.866;7.986;2023-03-13T01:11:07;99424.03;;;10.34;95.52
4346;BME280;2186;49.866;7.986;2023-03-13T01:13:34;99427.09;;;10.46;95.73
4346;BME280;2186;49.866;7.986;2023-03-13T01:16:10;99415.69;;;10.44;95.63
4346;BME280;2186;49.866;7.986;2023-03-13T01:18:39;99414.91;;;10.42;95.42
4346;BME280;2186;49.866;7.986;2023-03-13T01:21:06;99400.72;;;10.41;96.08
4346;BME280;2186;49.866;7.986;2023-03-13T01:23:33;99410.25;;;10.47;95.75
4346;BME280;2186;49.866;7.986;2023-03-13T01:25:59;99395.75;;;10.54;95.18
4346;BME280;2186;49.866;7.986;2023-03-13T01:28:26;99394.44;;;10.44;95.99
4346;BME280;2186;49.866;7.986;2023-03-13T01:30:52;99392.16;;;10.55;95.44
4346;BME280;2186;49.866;7.986;2023-03-13T01:33:19;99391.25;;;10.56;95.07
4346;BME280;2186;49.866;7.986;2023-03-13T01:35:46;99385.88;;;10.57;95.80
4346;BME280;2186;49.866;7.986;2023-03-13T01:38:12;99382.13;;;10.61;95.87
4346;BME280;2186;49.866;7.986;2023-03-13T01:40:47;99379.81;;;10.54;96.26
4346;BME280;2186;49.866;7.986;2023-03-13T01:43:20;99378.75;;;10.58;95.88
4346;BME280;2186;49.866;7.986;2023-03-13T01:48:41;99367.91;;;10.62;96.10
4346;BME280;2186;49.866;7.986;2023-03-13T01:51:22;99370.53;;;10.44;97.80
4346;BME280;2186;49.866;7.986;2023-03-13T01:53:55;99351.31;;;10.57;97.88
4346;BME280;2186;49.866;7.986;2023-03-13T01:56:32;99346.00;;;10.57;97.50
4346;BME280;2186;49.866;7.986;2023-03-13T01:59:00;99344.53;;;10.71;96.81
4346;BME280;2186;49.866;7.986;2023-03-13T02:01:28;99343.41;;;10.76;97.07
4346;BME280;2186;49.866;7.986;2023-03-13T02:03:55;99338.41;;;10.68;98.12
4346;BME280;2186;49.866;7.986;2023-03-13T02:06:24;99331.66;;;10.61;99.14
4346;BME280;2186;49.866;7.986;2023-03-13T02:08:55;99325.25;;;10.65;99.17
4346;BME280;2186;49.866;7.986;2023-03-13T02:11:31;99320.00;;;10.64;99.16
4346;BME280;2186;49.866;7.986;2023-03-13T02:14:01;99312.03;;;10.64;100.00
4346;BME280;2186;49.866;7.986;2023-03-13T02:16:32;99312.50;;;10.53;100.00
4346;BME280;2186;49.866;7.986;2023-03-13T02:19:01;99305.22;;;10.58;100.00
4346;BME280;2186;49.866;7.986;2023-03-13T02:21:42;99305.59;;;10.70;100.00
4346;BME280;2186;49.866;7.986;2023-03-13T02:24:24;99307.56;;;10.85;100.00
4346;BME280;2186;49.866;7.986;2023-03-13T02:26:54;99295.03;;;10.68;100.00
4346;BME280;2186;49.866;7.986;2023-03-13T02:29:21;99288.38;;;10.78;100.00
4346;BME280;2186;49.866;7.986;2023-03-13T02:31:50;99277.63;;;10.61;100.00
4346;BME280;2186;49.866;7.986;2023-03-13T02:34:21;99280.34;;;10.98;100.00
4346;BME280;2186;49.866;7.986;2023-03-13T02:36:49;99282.00;;;11.01;100.00
4346;BME280;2186;49.866;7.986;2023-03-13T02:39:19;99269.72;;;10.98;100.00
4346;BME280;2186;49.866;7.986;2023-03-13T02:41:47;99271.78;;;10.92;100.00
4346;BME280;2186;49.866;7.986;2023-03-13T02:44:14;99264.16;;;11.03;100.00
4346;BME280;2186;49.866;7.986;2023-03-13T02:46:48;99253.75;;;10.98;100.00
4346;BME280;2186;49.866;7.986;2023-03-13T02:49:26;99249.56;;;10.93;100.00
4346;BME280;2186;49.866;7.986;2023-03-13T02:51:59;99251.28;;;10.75;100.00
4346;BME280;2186;49.866;7.986;2023-03-13T02:54:33;99238.16;;;10.91;100.00
4346;BME280;2186;49.866;7.986;2023-03-13T02:57:02;99239.09;;;10.90;100.00
4346;BME280;2186;49.866;7.986;2023-03-13T02:59:30;99229.03;;;10.96;100.00
4346;BME280;2186;49.866;7.986;2023-03-13T03:01:57;99236.72;;;11.03;100.00
4346;BME280;2186;49.866;7.986;2023-03-13T03:04:24;99232.03;;;11.08;100.00
4346;BME280;2186;49.866;7.986;2023-03-13T03:06:51;99234.78;;;11.25;100.00
4346;BME280;2186;49.866;7.986;2023-03-13T03:09:19;99222.63;;;11.37;100.00
4346;BME280;2186;49.866;7.986;2023-03-13T03:11:46;99231.56;;;11.36;100.00
4346;BME280;2186;49.866;7.986;2023-03-13T03:14:12;99231.75;;;11.14;100.00
4346;BME280;2186;49.866;7.986;2023-03-13T03:16:39;99235.47;;;11.28;100.00
4346;BME280;2186;49.866;7.986;2023-03-13T03:19:06;99225.53;;;11.32;100.00
4346;BME280;2186;49.866;7.986;2023-03-13T03:21:34;99232.72;;;11.30;100.00
4346;BME280;2186;49.866;7.986;2023-03-13T03:24:00;99246.38;;;11.22;100.00
4346;BME280;2186;49.866;7.986;2023-03-13T03:26:27;99241.34;;;11.35;100.00
4346;BME280;2186;49.866;7.986;2023-03-13T03:28:53;99227.72;;;11.24;100.00
4346;BME280;2186;49.866;7.986;2023-03-13T03:31:20;99227.56;;;11.27;100.00
4346;BME280;2186;49.866;7.986;2023-03-13T03:33:47;99225.06;;;11.24;100.00
4346;BME280;2186;49.866;7.986;2023-03-13T03:36:16;99222.88;;;11.32;100.00
4346;BME280;2186;49.866;7.986;2023-03-13T03:38:43;99215.84;;;11.48;100.00
4346;BME280;2186;49.866;7.986;2023-03-13T03:41:11;99209.69;;;11.48;100.00
4346;BME280;2186;49.866;7.986;2023-03-13T03:43:37;99207.66;;;11.53;100.00
4346;BME280;2186;49.866;7.986;2023-03-13T03:46:04;99199.88;;;11.48;100.00
4346;BME280;2186;49.866;7.986;2023-03-13T03:48:31;99193.88;;;11.45;100.00
4346;BME280;2186;49.866;7.986;2023-03-13T03:50:57;99193.34;;;11.55;100.00
4346;BME280;2186;49.866;7.986;2023-03-13T03:53:24;99192.22;;;11.60;100.00
4346;BME280;2186;49.866;7.986;2023-03-13T03:55:51;99192.31;;;11.58;100.00
4346;BME280;2186;49.866;7.986;2023-03-13T03:58:17;99184.00;;;11.64;100.00
4346;BME280;2186;49.866;7.986;2023-03-13T04:00:45;99179.69;;;11.80;100.00
4346;BME280;2186;49.866;7.986;2023-03-13T04:03:12;99183.31;;;11.61;100.00
4346;BME280;2186;49.866;7.986;2023-03-13T04:05:39;99186.53;;;11.67;100.00
4346;BME280;2186;49.866;7.986;2023-03-13T04:08:06;99177.53;;;11.70;100.00
4346;BME280;2186;49.866;7.986;2023-03-13T04:10:33;99171.19;;;11.55;100.00
4346;BME280;2186;49.866;7.986;2023-03-13T04:13:00;99178.31;;;11.54;100.00
4346;BME280;2186;49.866;7.986;2023-03-13T04:15:27;99168.59;;;11.53;100.00
4346;BME280;2186;49.866;7.986;2023-03-13T04:17:53;99170.94;;;11.60;100.00
4346;BME280;2186;49.866;7.986;2023-03-13T04:20:20;99172.66;;;11.61;100.00
4346;BME280;2186;49.866;7.986;2023-03-13T04:22:46;99179.88;;;11.58;100.00
4346;BME280;2186;49.866;7.986;2023-03-13T04:25:12;99179.88;;;11.58;100.00
4346;BME280;2186;49.866;7.986;2023-03-13T04:27:39;99179.88;;;11.58;100.00
4346;BME280;2186;49.866;7.986;2023-03-13T04:30:06;99178.69;;;11.64;100.00
4346;BME280;2186;49.866;7.986;2023-03-13T04:32:33;99162.50;;;11.69;100.00
4346;BME280;2186;49.866;7.986;2023-03-13T04:34:59;99166.97;;;11.68;100.00
4346;BME280;2186;49.866;7.986;2023-03-13T04:37:26;99155.38;;;11.86;100.00
4346;BME280;2186;49.866;7.986;2023-03-13T04:39:52;99146.97;;;11.77;100.00
4346;BME280;2186;49.866;7.986;2023-03-13T04:42:19;99158.91;;;11.87;100.00
4346;BME280;2186;49.866;7.986;2023-03-13T04:44:45;99159.66;;;11.72;100.00
4346;BME280;2186;49.866;7.986;2023-03-13T04:47:12;99162.16;;;11.75;100.00
4346;BME280;2186;49.866;7.986;2023-03-13T04:49:38;99161.81;;;11.82;100.00
4346;BME280;2186;49.866;7.986;2023-03-13T04:52:05;99162.00;;;11.78;100.00
4346;BME280;2186;49.866;7.986;2023-03-13T04:54:31;99158.75;;;11.90;100.00
4346;BME280;2186;49.866;7.986;2023-03-13T04:56:58;99146.47;;;11.88;100.00
4346;BME280;2186;49.866;7.986;2023-03-13T04:59:24;99145.75;;;11.84;100.00
4346;BME280;2186;49.866;7.986;2023-03-13T05:01:50;99137.84;;;11.82;100.00
4346;BME280;2186;49.866;7.986;2023-03-13T05:04:17;99144.13;;;11.81;100.00
4346;BME280;2186;49.866;7.986;2023-03-13T05:06:43;99124.03;;;11.92;100.00
4346;BME280;2186;49.866;7.986;2023-03-13T05:09:10;99115.28;;;11.90;100.00
4346;BME280;2186;49.866;7.986;2023-03-13T05:11:36;99109.56;;;11.97;100.00
4346;BME280;2186;49.866;7.986;2023-03-13T05:14:03;99121.38;;;12.09;100.00
4346;BME280;2186;49.866;7.986;2023-03-13T05:16:29;99110.84;;;12.06;100.00
4346;BME280;2186;49.866;7.986;2023-03-13T05:18:56;99100.06;;;12.09;100.00
4346;BME280;2186;49.866;7.986;2023-03-13T05:21:22;99095.91;;;12.03;100.00
4346;BME280;2186;49.866;7.986;2023-03-13T05:23:49;99075.97;;;11.95;100.00
4346;BME280;2186;49.866;7.986;2023-03-13T05:26:15;99071.41;;;11.97;100.00
4346;BME280;2186;49.866;7.986;2023-03-13T05:28:41;99081.56;;;12.06;100.00
4346;BME280;2186;49.866;7.986;2023-03-13T05:31:08;99091.97;;;12.10;100.00
4346;BME280;2186;49.866;7.986;2023-03-13T05:33:34;99086.75;;;12.09;100.00
4346;BME280;2186;49.866;7.986;2023-03-13T05:36:01;99087.47;;;11.95;100.00
4346;BME280;2186;49.866;7.986;2023-03-13T05:38:27;99086.66;;;12.10;100.00
4346;BME280;2186;49.866;7.986;2023-03-13T05:40:54;99094.63;;;12.10;100.00
4346;BME280;2186;49.866;7.986;2023-03-13T05:43:20;99085.28;;;12.19;100.00
4346;BME280;2186;49.866;7.986;2023-03-13T05:45:46;99075.06;;;12.11;100.00
4346;BME280;2186;49.866;7.986;2023-03-13T05:48:13;99087.03;;;12.20;100.00
4346;BME280;2186;49.866;7.986;2023-03-13T05:50:39;99086.22;;;12.18;100.00
4346;BME280;2186;49.866;7.986;2023-03-13T05:53:06;99086.31;;;12.16;100.00
4346;BME280;2186;49.866;7.986;2023-03-13T05:55:32;99080.66;;;12.23;100.00
4346;BME280;2186;49.866;7.986;2023-03-13T05:57:59;99074.47;;;12.22;100.00
4346;BME280;2186;49.866;7.986;2023-03-13T06:00:25;99058.03;;;12.30;100.00
4346;BME280;2186;49.866;7.986;2023-03-13T06:02:51;99070.28;;;12.34;100.00
4346;BME280;2186;49.866;7.986;2023-03-13T06:05:18;99061.47;;;12.32;100.00
4346;BME280;2186;49.866;7.986;2023-03-13T06:07:44;99065.34;;;12.42;100.00
4346;BME280;2186;49.866;7.986;2023-03-13T06:10:11;99066.75;;;12.49;100.00
4346;BME280;2186;49.866;7.986;2023-03-13T06:12:37;99064.41;;;12.59;100.00
4346;BME280;2186;49.866;7.986;2023-03-13T06:15:04;99056.41;;;12.59;100.00
4346;BME280;2186;49.866;7.986;2023-03-13T06:17:32;99062.69;;;12.58;100.00
4346;BME280;2186;49.866;7.986;2023-03-13T06:19:59;99061.44;;;12.49;100.00
4346;BME280;2186;49.866;7.986;2023-03-13T06:22:25;99057.19;;;12.45;100.00
4346;BME280;2186;49.866;7.986;2023-03-13T06:24:52;99042.13;;;12.60;100.00
4346;BME280;2186;49.866;7.986;2023-03-13T06:27:18;99032.94;;;12.65;100.00
4346;BME280;2186;49.866;7.986;2023-03-13T06:29:44;99044.38;;;12.67;100.00
4346;BME280;2186;49.866;7.986;2023-03-13T06:32:11;99058.16;;;12.75;100.00
4346;BME280;2186;49.866;7.986;2023-03-13T06:34:37;99054.19;;;12.51;100.00
4346;BME280;2186;49.866;7.986;2023-03-13T06:37:04;99048.78;;;12.37;100.00
4346;BME280;2186;49.866;7.986;2023-03-13T06:39:30;99044.88;;;12.58;100.00
4346;BME280;2186;49.866;7.986;2023-03-13T06:41:57;99043.25;;;12.71;100.00
4346;BME280;2186;49.866;7.986;2023-03-13T06:44:24;99033.44;;;12.72;100.00
4346;BME280;2186;49.866;7.986;2023-03-13T06:46:50;99041.28;;;12.75;100.00
4346;BME280;2186;49.866;7.986;2023-03-13T06:49:17;99044.44;;;12.82;100.00
4346;BME280;2186;49.866;7.986;2023-03-13T06:51:43;99045.81;;;12.89;100.00
4346;BME280;2186;49.866;7.986;2023-03-13T06:54:09;99058.13;;;12.91;100.00
4346;BME280;2186;49.866;7.986;2023-03-13T06:56:36;99063.00;;;12.99;100.00
4346;BME280;2186;49.866;7.986;2023-03-13T06:59:02;99066.34;;;13.02;100.00
4346;BME280;2186;49.866;7.986;2023-03-13T07:01:29;99074.94;;;13.08;100.00
4346;BME280;2186;49.866;7.986;2023-03-13T07:03:56;99069.13;;;13.15;100.00
4346;BME280;2186;49.866;7.986;2023-03-13T07:06:22;99065.47;;;13.18;100.00
4346;BME280;2186;49.866;7.986;2023-03-13T07:08:49;99074.75;;;13.26;100.00
4346;BME280;2186;49.866;7.986;2023-03-13T07:11:15;99082.66;;;13.28;100.00
4346;BME280;2186;49.866;7.986;2023-03-13T07:13:42;99090.41;;;13.32;100.00
4346;BME280;2186;49.866;7.986;2023-03-13T07:16:10;99081.41;;;13.19;100.00
4346;BME280;2186;49.866;7.986;2023-03-13T07:18:38;99082.16;;;13.21;100.00
4346;BME280;2186;49.866;7.986;2023-03-13T07:21:08;99078.16;;;13.28;100.00
4346;BME280;2186;49.866;7.986;2023-03-13T07:23:35;99086.03;;;13.31;100.00
4346;BME280;2186;49.866;7.986;2023-03-13T07:26:04;99089.91;;;13.26;100.00
4346;BME280;2186;49.866;7.986;2023-03-13T07:28:31;99098.00;;;13.24;100.00
4346;BME280;2186;49.866;7.986;2023-03-13T07:33:30;99110.13;;;13.30;100.00
4346;BME280;2186;49.866;7.986;2023-03-13T07:35:56;99114.34;;;13.34;100.00
4346;BME280;2186;49.866;7.986;2023-03-13T07:38:23;99115.63;;;13.27;100.00
4346;BME280;2186;49.866;7.986;2023-03-13T07:40:50;99110.81;;;13.33;100.00
4346;BME280;2186;49.866;7.986;2023-03-13T07:43:18;99100.09;;;13.19;100.00
4346;BME280;2186;49.866;7.986;2023-03-13T07:45:56;99096.38;;;13.22;100.00
4346;BME280;2186;49.866;7.986;2023-03-13T07:48:25;99103.28;;;13.40;100.00
4346;BME280;2186;49.866;7.986;2023-03-13T07:50:54;99114.06;;;13.39;100.00
4346;BME280;2186;49.866;7.986;2023-03-13T07:53:21;99115.19;;;13.34;100.00
4346;BME280;2186;49.866;7.986;2023-03-13T07:56:15;99108.63;;;13.40;100.00
4346;BME280;2186;49.866;7.986;2023-03-13T07:58:42;99114.66;;;13.44;100.00
4346;BME280;2186;49.866;7.986;2023-03-13T08:03:35;99106.03;;;13.39;100.00
4346;BME280;2186;49.866;7.986;2023-03-13T08:06:05;99109.56;;;13.39;100.00
4346;BME280;2186;49.866;7.986;2023-03-13T08:08:33;99102.34;;;13.41;100.00
4346;BME280;2186;49.866;7.986;2023-03-13T08:13:37;99096.22;;;13.39;100.00
4346;BME280;2186;49.866;7.986;2023-03-13T08:18:33;99105.94;;;13.40;100.00
4346;BME280;2186;49.866;7.986;2023-03-13T08:21:01;99104.66;;;13.47;100.00
4346;BME280;2186;49.866;7.986;2023-03-13T08:23:28;99112.78;;;13.60;100.00
4346;BME280;2186;49.866;7.986;2023-03-13T08:25:55;99115.44;;;13.46;100.00
4346;BME280;2186;49.866;7.986;2023-03-13T08:28:21;99120.69;;;13.47;100.00
4346;BME280;2186;49.866;7.986;2023-03-13T08:30:47;99122.88;;;13.55;100.00
4346;BME280;2186;49.866;7.986;2023-03-13T08:33:14;99120.63;;;13.63;100.00
4346;BME280;2186;49.866;7.986;2023-03-13T08:35:40;99131.28;;;13.63;100.00
4346;BME280;2186;49.866;7.986;2023-03-13T08:38:07;99123.69;;;13.71;100.00
4346;BME280;2186;49.866;7.986;2023-03-13T08:40:33;99118.31;;;13.57;100.00
4346;BME280;2186;49.866;7.986;2023-03-13T08:42:59;99116.56;;;13.56;100.00
4346;BME280;2186;49.866;7.986;2023-03-13T08:45:26;99116.41;;;13.59;100.00
4346;BME280;2186;49.866;7.986;2023-03-13T08:47:52;99119.22;;;13.72;100.00
4346;BME280;2186;49.866;7.986;2023-03-13T08:50:19;99102.13;;;13.60;100.00
4346;BME280;2186;49.866;7.986;2023-03-13T08:52:46;99104.31;;;13.68;100.00
4346;BME280;2186;49.866;7.986;2023-03-13T08:55:12;99098.00;;;13.69;100.00
4346;BME280;2186;49.866;7.986;2023-03-13T08:57:38;99100.53;;;13.72;100.00
4346;BME280;2186;49.866;7.986;2023-03-13T09:00:05;99097.66;;;13.75;100.00
4346;BME280;2186;49.866;7.986;2023-03-13T09:02:32;99094.03;;;13.76;100.00
4346;BME280;2186;49.866;7.986;2023-03-13T09:04:59;99088.41;;;13.80;100.00
4346;BME280;2186;49.866;7.986;2023-03-13T09:07:25;99077.78;;;13.64;100.00
4346;BME280;2186;49.866;7.986;2023-03-13T09:09:52;99079.16;;;13.72;100.00
4346;BME280;2186;49.866;7.986;2023-03-13T09:12:18;99082.50;;;13.75;100.00
4346;BME280;2186;49.866;7.986;2023-03-13T09:14:56;99087.63;;;13.78;100.00
4346;BME280;2186;49.866;7.986;2023-03-13T09:17:22;99079.34;;;13.83;100.00
4346;BME280;2186;49.866;7.986;2023-03-13T09:19:49;99085.72;;;13.80;100.00
4346;BME280;2186;49.866;7.986;2023-03-13T09:22:25;99084.22;;;14.05;100.00
4346;BME280;2186;49.866;7.986;2023-03-13T09:24:52;99078.00;;;13.90;100.00
4346;BME280;2186;49.866;7.986;2023-03-13T09:27:18;99071.06;;;14.02;100.00
4346;BME280;2186;49.866;7.986;2023-03-13T09:29:45;99071.53;;;14.08;100.00
4346;BME280;2186;49.866;7.986;2023-03-13T09:32:11;99068.84;;;14.08;100.00
4346;BME280;2186;49.866;7.986;2023-03-13T09:34:38;99074.09;;;14.24;100.00
4346;BME280;2186;49.866;7.986;2023-03-13T09:37:04;99065.06;;;14.12;100.00
4346;BME280;2186;49.866;7.986;2023-03-13T09:39:30;99062.63;;;14.22;100.00
4346;BME280;2186;49.866;7.986;2023-03-13T09:42:06;99051.47;;;14.30;100.00
4346;BME280;2186;49.866;7.986;2023-03-13T09:44:51;99057.03;;;14.27;100.00
4346;BME280;2186;49.866;7.986;2023-03-13T09:47:30;99056.34;;;14.09;100.00
4346;BME280;2186;49.866;7.986;2023-03-13T09:50:11;99047.88;;;14.02;100.00
4346;BME280;2186;49.866;7.986;2023-03-13T09:52:39;99043.84;;;14.09;100.00
4346;BME280;2186;49.866;7.986;2023-03-13T09:55:33;99048.91;;;14.14;100.00
4346;BME280;2186;49.866;7.986;2023-03-13T09:58:18;99050.63;;;14.15;100.00
4346;BME280;2186;49.866;7.986;2023-03-13T10:00:57;99040.06;;;13.99;100.00
4346;BME280;2186;49.866;7.986;2023-03-13T10:03:28;99039.34;;;14.10;100.00
4346;BME280;2186;49.866;7.986;2023-03-13T10:05:58;99048.72;;;14.17;100.00
4346;BME280;2186;49.866;7.986;2023-03-13T10:08:29;99046.81;;;14.19;100.00
4346;BME280;2186;49.866;7.986;2023-03-13T10:11:06;99036.78;;;14.08;100.00
4346;BME280;2186;49.866;7.986;2023-03-13T10:13:46;99039.75;;;14.18;100.00
4346;BME280;2186;49.866;7.986;2023-03-13T10:19:11;99039.00;;;14.16;100.00
4346;BME280;2186;49.866;7.986;2023-03-13T10:21:40;99040.13;;;14.26;100.00
4346;BME280;2186;49.866;7.986;2023-03-13T10:24:32;99030.88;;;14.17;100.00
4346;BME280;2186;49.866;7.986;2023-03-13T10:26:58;99043.34;;;14.31;100.00
4346;BME280;2186;49.866;7.986;2023-03-13T10:29:27;99040.28;;;14.23;100.00
4346;BME280;2186;49.866;7.986;2023-03-13T10:31:58;99040.38;;;14.36;100.00
4346;BME280;2186;49.866;7.986;2023-03-13T10:34:43;99035.06;;;14.21;100.00
4346;BME280;2186;49.866;7.986;2023-03-13T10:37:24;99030.34;;;14.25;100.00
4346;BME280;2186;49.866;7.986;2023-03-13T10:39:52;99030.09;;;14.15;100.00
4346;BME280;2186;49.866;7.986;2023-03-13T10:42:26;99011.41;;;14.01;100.00
4346;BME280;2186;49.866;7.986;2023-03-13T10:45:00;99031.06;;;14.14;100.00
4346;BME280;2186;49.866;7.986;2023-03-13T10:47:33;99022.84;;;14.17;100.00
4346;BME280;2186;49.866;7.986;2023-03-13T10:50:01;99017.81;;;14.13;100.00
4346;BME280;2186;49.866;7.986;2023-03-13T10:52:40;99011.47;;;14.28;100.00
4346;BME280;2186;49.866;7.986;2023-03-13T10:55:19;98997.81;;;14.33;100.00
4346;BME280;2186;49.866;7.986;2023-03-13T10:58:00;98993.44;;;14.17;100.00
4346;BME280;2186;49.866;7.986;2023-03-13T11:00:38;98989.44;;;14.10;100.00
4346;BME280;2186;49.866;7.986;2023-03-13T11:03:30;98991.22;;;14.24;100.00
4346;BME280;2186;49.866;7.986;2023-03-13T11:06:02;98983.47;;;14.34;100.00
4346;BME280;2186;49.866;7.986;2023-03-13T11:08:35;98977.06;;;14.36;100.00
4346;BME280;2186;49.866;7.986;2023-03-13T11:11:04;98958.34;;;14.36;100.00
4346;BME280;2186;49.866;7.986;2023-03-13T11:13:35;98965.00;;;14.58;100.00
4346;BME280;2186;49.866;7.986;2023-03-13T11:16:17;98958.44;;;14.49;100.00
4346;BME280;2186;49.866;7.986;2023-03-13T11:21:23;98938.81;;;14.63;100.00
4346;BME280;2186;49.866;7.986;2023-03-13T11:23:57;98939.97;;;14.59;100.00
4346;BME280;2186;49.866;7.986;2023-03-13T11:26:36;98953.03;;;14.63;100.00
4346;BME280;2186;49.866;7.986;2023-03-13T11:29:16;98941.47;;;14.63;100.00
4346;BME280;2186;49.866;7.986;2023-03-13T11:31:50;98939.06;;;14.72;100.00
4346;BME280;2186;49.866;7.986;2023-03-13T11:34:39;98925.50;;;14.88;100.00
4346;BME280;2186;49.866;7.986;2023-03-13T11:37:13;98911.50;;;14.97;99.90
4346;BME280;2186;49.866;7.986;2023-03-13T11:42:43;98905.59;;;14.92;99.57
4346;BME280;2186;49.866;7.986;2023-03-13T11:45:48;98896.59;;;14.93;99.60
4346;BME280;2186;49.866;7.986;2023-03-13T11:51:12;98868.97;;;14.93;99.70
4346;BME280;2186;49.866;7.986;2023-03-13T11:54:46;98866.66;;;15.14;99.41
4346;BME280;2186;49.866;7.986;2023-03-13T11:56:54;98859.13;;;15.19;99.43
4346;BME280;2186;49.866;7.986;2023-03-13T11:59:33;98867.28;;;15.30;99.08
4346;BME280;2186;49.866;7.986;2023-03-13T12:04:38;98853.00;;;15.42;99.03
4346;BME280;2186;49.866;7.986;2023-03-13T12:07:24;98855.78;;;15.53;99.09
4346;BME280;2186;49.866;7.986;2023-03-13T12:09:55;98848.84;;;15.51;98.80
4346;BME280;2186;49.866;7.986;2023-03-13T12:12:32;98839.25;;;15.72;99.07
4346;BME280;2186;49.866;7.986;2023-03-13T12:15:22;98832.88;;;15.86;98.40
4346;BME280;2186;49.866;7.986;2023-03-13T12:25:37;98813.97;;;16.00;98.59
4346;BME280;2186;49.866;7.986;2023-03-13T12:28:18;98808.25;;;15.81;99.00
4346;BME280;2186;49.866;7.986;2023-03-13T12:30:57;98804.81;;;15.91;98.25
4346;BME280;2186;49.866;7.986;2023-03-13T12:33:45;98802.19;;;16.14;97.75
4346;BME280;2186;49.866;7.986;2023-03-13T12:36:20;98797.66;;;16.03;98.50
4346;BME280;2186;49.866;7.986;2023-03-13T12:41:43;98793.84;;;16.29;97.16
4346;BME280;2186;49.866;7.986;2023-03-13T12:44:19;98776.28;;;16.25;97.27
4346;BME280;2186;49.866;7.986;2023-03-13T12:49:37;98757.66;;;16.24;97.28
4346;BME280;2186;49.866;7.986;2023-03-13T12:55:22;98733.47;;;16.48;96.85
4346;BME280;2186;49.866;7.986;2023-03-13T12:58:46;98724.22;;;16.85;96.58
4346;BME280;2186;49.866;7.986;2023-03-13T13:01:20;98714.25;;;16.87;94.98
4346;BME280;2186;49.866;7.986;2023-03-13T13:04:12;98700.78;;;17.21;94.27
4346;BME280;2186;49.866;7.986;2023-03-13T13:07:02;98693.31;;;17.36;93.08
4346;BME280;2186;49.866;7.986;2023-03-13T13:09:34;98686.34;;;17.44;92.89
4346;BME280;2186;49.866;7.986;2023-03-13T13:12:16;98674.19;;;17.61;92.16
4346;BME280;2186;49.866;7.986;2023-03-13T13:20:28;98648.50;;;18.00;90.21
4346;BME280;2186;49.866;7.986;2023-03-13T13:22:56;98626.66;;;18.15;89.69
4346;BME280;2186;49.866;7.986;2023-03-13T13:27:49;98604.50;;;18.62;88.96
4346;BME280;2186;49.866;7.986;2023-03-13T13:32:54;98596.63;;;18.71;86.34
4346;BME280;2186;49.866;7.986;2023-03-13T13:35:32;98592.16;;;19.00;86.42
4346;BME280;2186;49.866;7.986;2023-03-13T13:43:33;98565.25;;;19.10;80.33
4346;BME280;2186;49.866;7.986;2023-03-13T13:46:24;98559.03;;;19.29;80.48
4346;BME280;2186;49.866;7.986;2023-03-13T13:54:30;98535.19;;;19.43;79.66
4346;BME280;2186;49.866;7.986;2023-03-13T13:56:58;98515.22;;;19.36;78.34
4346;BME280;2186;49.866;7.986;2023-03-13T13:59:32;98514.63;;;19.42;78.66
4346;BME280;2186;49.866;7.986;2023-03-13T14:02:13;98508.53;;;19.50;79.21
4346;BME280;2186;49.866;7.986;2023-03-13T14:04:46;98501.31;;;19.21;79.08
4346;BME280;2186;49.866;7.986;2023-03-13T14:07:19;98479.75;;;19.02;79.36
4346;BME280;2186;49.866;7.986;2023-03-13T14:10:14;98486.13;;;19.30;79.34
4346;BME280;2186;49.866;7.986;2023-03-13T14:12:55;98472.66;;;19.30;79.26
4346;BME280;2186;49.866;7.986;2023-03-13T14:15:30;98471.22;;;19.45;79.73
4346;BME280;2186;49.866;7.986;2023-03-13T14:17:59;98474.66;;;19.47;79.49
4346;BME280;2186;49.866;7.986;2023-03-13T14:20:32;98472.22;;;19.44;78.93
4346;BME280;2186;49.866;7.986;2023-03-13T14:23:02;98471.81;;;19.39;78.90
4346;BME280;2186;49.866;7.986;2023-03-13T14:25:44;98463.47;;;19.33;79.21
4346;BME280;2186;49.866;7.986;2023-03-13T14:28:21;98457.88;;;19.44;78.99
4346;BME280;2186;49.866;7.986;2023-03-13T14:30:50;98442.16;;;19.30;78.97
4346;BME280;2186;49.866;7.986;2023-03-13T14:33:17;98432.53;;;19.37;78.65
4346;BME280;2186;49.866;7.986;2023-03-13T14:35:44;98440.63;;;19.17;77.78
4346;BME280;2186;49.866;7.986;2023-03-13T14:38:30;98440.22;;;19.12;78.50
4346;BME280;2186;49.866;7.986;2023-03-13T14:40:58;98450.28;;;19.10;78.11